createdAt,value
2022-08-26T00:01:46.654Z,22.20
2022-08-26T00:04:13.685Z,22.13
2022-08-26T00:06:42.683Z,22.08
2022-08-26T00:09:16.261Z,22.18
2022-08-26T00:11:45.459Z,22.25
2022-08-26T00:14:14.030Z,22.27
2022-08-26T00:16:47.294Z,22.18
2022-08-26T00:19:15.296Z,22.18
2022-08-26T00:21:42.091Z,22.25
2022-08-26T00:24:08.900Z,21.37
2022-08-26T00:26:36.334Z,22.21
2022-08-26T00:29:03.314Z,22.25
2022-08-26T00:31:32.496Z,22.15
2022-08-26T00:33:59.823Z,22.25
2022-08-26T00:36:29.690Z,22.19
2022-08-26T00:38:57.805Z,22.15
2022-08-26T00:41:24.674Z,22.10
2022-08-26T00:43:52.964Z,22.05
2022-08-26T00:46:28.942Z,22.17
2022-08-26T00:49:04.509Z,22.16
2022-08-26T00:51:46.046Z,22.30
2022-08-26T00:54:13.458Z,22.46
2022-08-26T00:57:16.291Z,22.61
2022-08-26T00:59:46.862Z,22.68
2022-08-26T01:02:20.026Z,22.75
2022-08-26T01:04:48.442Z,22.86
2022-08-26T01:07:21.889Z,23.06
2022-08-26T01:09:49.000Z,22.77
2022-08-26T01:12:16.023Z,22.65
2022-08-26T01:14:49.684Z,22.62
2022-08-26T01:17:17.355Z,22.57
2022-08-26T01:19:48.923Z,22.68
2022-08-26T01:22:56.786Z,22.76
2022-08-26T01:25:27.588Z,22.62
2022-08-26T01:27:57.917Z,22.56
2022-08-26T01:30:28.034Z,22.59
2022-08-26T01:32:58.030Z,22.40
2022-08-26T01:35:25.159Z,22.31
2022-08-26T01:37:55.116Z,22.12
2022-08-26T01:40:32.822Z,22.04
2022-08-26T01:43:02.575Z,21.84
2022-08-26T01:45:33.351Z,21.90
2022-08-26T01:48:04.915Z,21.81
2022-08-26T01:50:35.137Z,22.03
2022-08-26T01:53:06.570Z,22.22
2022-08-26T01:55:35.725Z,22.28
2022-08-26T01:58:07.935Z,22.35
2022-08-26T02:00:35.844Z,22.39
2022-08-26T02:03:21.705Z,22.42
2022-08-26T02:05:58.766Z,22.64
2022-08-26T02:08:46.720Z,22.72
2022-08-26T02:11:14.484Z,22.90
2022-08-26T02:14:19.800Z,23.21
2022-08-26T02:16:49.255Z,23.26
2022-08-26T02:19:20.912Z,23.36
2022-08-26T02:21:52.309Z,23.35
2022-08-26T02:24:24.681Z,23.32
2022-08-26T02:26:56.013Z,23.26
2022-08-26T02:29:24.988Z,23.14
2022-08-26T02:31:53.247Z,23.23
2022-08-26T02:34:23.745Z,23.25
2022-08-26T02:36:57.243Z,23.23
2022-08-26T02:39:24.077Z,23.35
2022-08-26T02:41:50.855Z,23.36
2022-08-26T02:44:18.830Z,23.43
2022-08-26T02:46:47.006Z,23.42
2022-08-26T02:49:15.410Z,23.43
2022-08-26T02:51:43.907Z,23.41
2022-08-26T02:54:10.793Z,23.45
2022-08-26T02:56:37.579Z,23.43
2022-08-26T02:59:04.401Z,23.22
2022-08-26T03:01:34.885Z,23.27
2022-08-26T03:04:03.469Z,23.25
2022-08-26T03:06:30.550Z,23.32
2022-08-26T03:08:57.625Z,23.37
2022-08-26T03:11:29.615Z,23.37
2022-08-26T03:14:00.717Z,23.47
2022-08-26T03:16:35.219Z,23.40
2022-08-26T03:19:03.896Z,23.35
2022-08-26T03:21:30.964Z,23.34
2022-08-26T03:23:58.741Z,23.30
2022-08-26T03:29:40.475Z,23.33
2022-08-26T03:32:08.213Z,23.35
2022-08-26T03:34:35.927Z,23.28
2022-08-26T03:37:03.267Z,23.32
2022-08-26T03:39:31.547Z,23.25
2022-08-26T03:41:58.992Z,23.26
2022-08-26T03:44:26.833Z,23.23
2022-08-26T03:46:54.677Z,23.32
2022-08-26T03:49:22.328Z,23.34
2022-08-26T03:51:49.568Z,23.37
2022-08-26T03:54:16.978Z,23.44
2022-08-26T03:56:43.751Z,23.45
2022-08-26T03:59:13.611Z,23.51
2022-08-26T04:01:40.528Z,23.43
2022-08-26T04:04:07.281Z,23.40
2022-08-26T04:06:38.023Z,23.42
2022-08-26T04:09:11.177Z,23.32
2022-08-26T04:11:39.704Z,23.50
2022-08-26T04:14:20.189Z,23.52
2022-08-26T04:16:47.900Z,23.53
2022-08-26T04:19:16.219Z,23.42
2022-08-26T04:21:44.649Z,23.56
2022-08-26T04:24:13.466Z,23.49
2022-08-26T04:26:42.804Z,23.58
2022-08-26T04:29:18.257Z,23.64
2022-08-26T04:31:45.368Z,23.65
2022-08-26T04:34:14.175Z,23.64
2022-08-26T04:36:43.194Z,23.46
2022-08-26T04:39:12.389Z,23.63
2022-08-26T04:41:39.737Z,23.57
2022-08-26T04:44:07.028Z,23.73
2022-08-26T04:46:34.046Z,23.72
2022-08-26T04:49:01.147Z,23.82
2022-08-26T04:51:28.687Z,23.79
2022-08-26T04:53:57.936Z,23.91
2022-08-26T04:56:31.450Z,23.88
2022-08-26T04:58:59.337Z,23.88
2022-08-26T05:01:26.568Z,23.90
2022-08-26T05:03:54.681Z,24.00
2022-08-26T05:06:22.037Z,24.08
2022-08-26T05:08:48.887Z,24.12
2022-08-26T05:11:15.893Z,24.24
2022-08-26T05:13:42.747Z,24.15
2022-08-26T05:16:12.594Z,24.43
2022-08-26T05:18:40.444Z,24.47
2022-08-26T05:21:07.625Z,24.65
2022-08-26T05:23:37.106Z,24.83
2022-08-26T05:26:08.829Z,24.93
2022-08-26T05:28:36.915Z,25.15
2022-08-26T05:31:12.825Z,25.33
2022-08-26T05:33:43.415Z,25.30
2022-08-26T05:36:17.501Z,25.57
2022-08-26T05:38:44.758Z,25.48
2022-08-26T05:41:20.727Z,25.62
2022-08-26T05:43:47.936Z,25.61
2022-08-26T05:46:16.047Z,25.59
2022-08-26T05:48:44.404Z,25.62
2022-08-26T05:51:12.241Z,25.69
2022-08-26T05:53:40.747Z,25.83
2022-08-26T05:56:13.728Z,25.94
2022-08-26T05:58:42.092Z,25.97
2022-08-26T06:01:14.444Z,26.05
2022-08-26T06:03:44.800Z,26.13
2022-08-26T06:06:15.630Z,26.11
2022-08-26T06:08:47.268Z,26.29
2022-08-26T06:11:18.703Z,26.32
2022-08-26T06:13:46.659Z,26.45
2022-08-26T06:16:17.405Z,26.33
2022-08-26T06:18:46.659Z,26.30
2022-08-26T06:21:18.584Z,26.45
2022-08-26T06:24:05.867Z,26.35
2022-08-26T06:26:33.945Z,26.48
2022-08-26T06:29:05.709Z,26.68
2022-08-26T06:31:34.545Z,26.74
2022-08-26T06:34:05.243Z,26.61
2022-08-26T06:36:36.996Z,26.86
2022-08-26T06:39:10.158Z,26.92
2022-08-26T06:41:43.168Z,26.91
2022-08-26T06:44:10.244Z,27.26
2022-08-26T06:46:37.309Z,27.09
2022-08-26T06:49:05.694Z,27.31
2022-08-26T06:51:36.993Z,27.36
2022-08-26T06:54:05.824Z,27.78
2022-08-26T06:56:42.773Z,27.82
2022-08-26T06:59:11.234Z,28.11
2022-08-26T07:01:43.079Z,28.43
2022-08-26T07:04:12.418Z,28.91
2022-08-26T07:06:41.463Z,29.13
2022-08-26T07:09:10.712Z,28.89
2022-08-26T07:11:39.271Z,28.71
2022-08-26T07:14:07.278Z,28.89
2022-08-26T07:16:35.806Z,28.84
2022-08-26T07:19:10.856Z,28.97
2022-08-26T07:21:41.676Z,28.80
2022-08-26T07:24:11.213Z,28.42
2022-08-26T07:26:38.605Z,28.40
2022-08-26T07:29:06.971Z,28.61
2022-08-26T07:31:39.575Z,28.64
2022-08-26T07:34:10.954Z,28.61
2022-08-26T07:36:38.262Z,29.04
2022-08-26T07:39:06.246Z,29.73
2022-08-26T07:41:33.755Z,30.05
2022-08-26T07:44:01.082Z,29.93
2022-08-26T07:46:30.148Z,30.44
2022-08-26T07:48:58.152Z,30.37
2022-08-26T07:51:28.048Z,30.45
2022-08-26T07:53:55.663Z,30.93
2022-08-26T07:56:23.460Z,30.55
2022-08-26T07:58:53.987Z,30.27
2022-08-26T08:01:24.046Z,29.93
2022-08-26T08:03:51.917Z,29.61
2022-08-26T08:06:27.171Z,29.09
2022-08-26T08:08:54.459Z,29.19
2022-08-26T08:11:21.673Z,28.91
2022-08-26T08:13:56.040Z,28.88
2022-08-26T08:16:28.316Z,28.90
2022-08-26T08:18:59.401Z,28.84
2022-08-26T08:21:28.010Z,28.72
2022-08-26T08:23:56.913Z,28.81
2022-08-26T08:26:25.584Z,28.59
2022-08-26T08:28:57.684Z,28.75
2022-08-26T08:31:54.466Z,28.45
2022-08-26T08:34:16.003Z,28.73
2022-08-26T08:36:46.486Z,28.79
2022-08-26T08:39:13.743Z,28.77
2022-08-26T08:42:13.939Z,28.61
2022-08-26T08:44:44.392Z,28.61
2022-08-26T08:47:29.157Z,28.73
2022-08-26T08:50:02.559Z,28.56
2022-08-26T08:52:36.725Z,28.68
2022-08-26T08:55:10.355Z,28.79
2022-08-26T08:58:02.292Z,28.95
2022-08-26T09:00:39.829Z,28.89
2022-08-26T09:03:44.628Z,28.95
2022-08-26T09:06:18.894Z,29.08
2022-08-26T09:08:50.130Z,29.08
2022-08-26T09:11:19.237Z,29.11
2022-08-26T09:13:52.118Z,29.16
2022-08-26T09:16:37.528Z,29.24
2022-08-26T09:19:14.461Z,29.27
2022-08-26T09:21:41.392Z,29.25
2022-08-26T09:24:11.232Z,29.03
2022-08-26T09:26:41.103Z,28.96
2022-08-26T09:29:23.667Z,28.69
2022-08-26T09:31:51.877Z,28.75
2022-08-26T09:34:27.705Z,28.18
2022-08-26T09:36:59.560Z,28.67
2022-08-26T09:39:37.547Z,28.89
2022-08-26T09:42:09.797Z,28.80
2022-08-26T09:45:01.125Z,28.69
2022-08-26T09:47:37.242Z,28.72
2022-08-26T09:50:12.452Z,28.93
2022-08-26T09:52:40.350Z,29.02
2022-08-26T09:55:22.398Z,29.26
2022-08-26T09:57:51.850Z,29.30
2022-08-26T10:00:33.165Z,29.41
2022-08-26T10:03:02.959Z,29.23
2022-08-26T10:05:58.797Z,29.59
2022-08-26T10:08:36.201Z,29.32
2022-08-26T10:11:11.224Z,29.66
2022-08-26T10:13:42.390Z,29.48
2022-08-26T10:16:19.090Z,29.68
2022-08-26T10:19:00.053Z,29.62
2022-08-26T10:21:44.639Z,29.61
2022-08-26T10:24:20.334Z,29.61
2022-08-26T10:27:06.006Z,30.05
2022-08-26T10:29:43.561Z,30.10
2022-08-26T10:32:18.385Z,30.12
2022-08-26T10:34:45.621Z,30.44
2022-08-26T10:37:21.422Z,30.73
2022-08-26T10:40:35.544Z,30.81
2022-08-26T10:43:11.716Z,30.83
2022-08-26T10:45:51.781Z,30.43
2022-08-26T10:48:56.526Z,30.24
2022-08-26T10:51:35.607Z,30.48
2022-08-26T10:54:09.332Z,30.49
2022-08-26T10:56:44.857Z,30.51
2022-08-26T10:59:45.487Z,30.54
2022-08-26T11:02:28.480Z,30.99
2022-08-26T11:04:55.229Z,31.37
2022-08-26T11:07:41.959Z,30.59
2022-08-26T11:10:17.380Z,30.95
2022-08-26T11:12:49.231Z,31.08
2022-08-26T11:15:24.653Z,31.55
2022-08-26T11:17:51.881Z,30.93
2022-08-26T11:20:36.770Z,31.30
2022-08-26T11:23:12.764Z,31.34
2022-08-26T11:26:08.715Z,31.13
2022-08-26T11:28:40.696Z,30.86
2022-08-26T11:31:31.774Z,31.30
2022-08-26T11:34:08.837Z,31.60
2022-08-26T11:36:38.000Z,31.85
2022-08-26T11:39:36.820Z,32.12
2022-08-26T11:42:35.975Z,32.29
2022-08-26T11:45:32.103Z,32.27
2022-08-26T11:47:58.979Z,32.54
2022-08-26T11:50:28.676Z,32.67
2022-08-26T11:53:02.411Z,33.39
2022-08-26T11:55:34.328Z,32.30
2022-08-26T11:58:04.803Z,31.05
2022-08-26T12:00:47.900Z,31.21
2022-08-26T12:03:21.613Z,31.61
2022-08-26T12:05:52.558Z,32.02
2022-08-26T12:08:25.049Z,32.36
2022-08-26T12:11:10.286Z,32.61
2022-08-26T12:13:39.191Z,32.28
2022-08-26T12:16:07.018Z,32.24
2022-08-26T12:18:37.295Z,32.35
2022-08-26T12:21:14.682Z,31.92
2022-08-26T12:23:46.776Z,32.14
2022-08-26T12:26:24.929Z,32.05
2022-08-26T12:28:57.493Z,32.15
2022-08-26T12:31:36.754Z,31.98
2022-08-26T12:34:06.772Z,31.81
2022-08-26T12:36:50.490Z,31.60
2022-08-26T12:39:35.896Z,31.67
2022-08-26T12:42:25.287Z,31.54
2022-08-26T12:45:00.078Z,31.47
2022-08-26T12:47:42.282Z,31.46
2022-08-26T12:50:18.923Z,30.59
2022-08-26T12:52:55.616Z,30.60
2022-08-26T12:55:33.318Z,30.95
2022-08-26T12:58:15.503Z,31.10
2022-08-26T13:00:50.681Z,31.54
2022-08-26T13:03:37.499Z,32.10
2022-08-26T13:06:22.876Z,32.77
2022-08-26T13:09:03.271Z,33.17
2022-08-26T13:11:35.841Z,33.46
2022-08-26T13:14:09.626Z,33.03
2022-08-26T13:16:39.506Z,32.25
2022-08-26T13:19:20.570Z,31.38
2022-08-26T13:21:50.774Z,31.35
2022-08-26T13:24:26.095Z,31.14
2022-08-26T13:26:53.139Z,31.01
2022-08-26T13:29:20.077Z,31.68
2022-08-26T13:31:48.349Z,33.04
2022-08-26T13:34:19.507Z,32.69
2022-08-26T13:36:51.787Z,33.00
2022-08-26T13:39:19.075Z,32.98
2022-08-26T13:41:46.233Z,34.03
2022-08-26T13:44:13.758Z,34.36
2022-08-26T13:46:41.486Z,34.47
2022-08-26T13:49:12.231Z,33.88
2022-08-26T13:51:39.236Z,34.09
2022-08-26T13:54:06.418Z,33.23
2022-08-26T13:56:34.278Z,33.47
2022-08-26T13:59:02.245Z,33.42
2022-08-26T14:01:31.959Z,33.11
2022-08-26T14:03:58.887Z,32.45
2022-08-26T14:06:26.286Z,32.89
2022-08-26T14:08:53.106Z,33.75
2022-08-26T14:11:20.183Z,34.12
2022-08-26T14:13:47.197Z,33.60
2022-08-26T14:16:27.095Z,33.69
2022-08-26T14:18:54.271Z,33.12
2022-08-26T14:21:21.607Z,32.90
2022-08-26T14:23:48.419Z,33.09
2022-08-26T14:26:27.737Z,32.45
2022-08-26T14:28:57.869Z,31.97
2022-08-26T14:31:27.097Z,31.74
2022-08-26T14:33:55.089Z,31.12
2022-08-26T14:36:33.882Z,30.95
2022-08-26T14:39:12.394Z,31.09
2022-08-26T14:41:45.429Z,30.86
2022-08-26T14:44:22.066Z,30.83
2022-08-26T14:46:51.036Z,30.90
2022-08-26T14:49:19.310Z,30.71
2022-08-26T14:51:46.293Z,30.64
2022-08-26T14:54:14.431Z,30.51
2022-08-26T14:56:48.860Z,30.48
2022-08-26T14:59:20.774Z,30.32
2022-08-26T15:01:48.158Z,30.29
2022-08-26T15:04:16.144Z,30.21
2022-08-26T15:06:43.251Z,30.00
2022-08-26T15:09:10.144Z,30.05
2022-08-26T15:11:37.298Z,29.97
2022-08-26T15:14:04.600Z,30.03
2022-08-26T15:16:33.391Z,30.21
2022-08-26T15:19:04.086Z,30.05
2022-08-26T15:21:32.670Z,29.99
2022-08-26T15:24:02.108Z,29.56
2022-08-26T15:26:30.479Z,29.93
2022-08-26T15:28:59.863Z,29.72
2022-08-26T15:31:31.671Z,29.69
2022-08-26T15:34:09.543Z,29.56
2022-08-26T15:36:39.211Z,29.15
2022-08-26T15:39:07.519Z,29.31
2022-08-26T15:41:34.761Z,29.27
2022-08-26T15:44:03.530Z,29.39
2022-08-26T15:46:31.782Z,29.42
2022-08-26T15:48:58.708Z,29.21
2022-08-26T15:51:29.430Z,29.15
2022-08-26T15:53:57.286Z,28.81
2022-08-26T15:56:26.531Z,29.37
2022-08-26T15:58:56.323Z,29.15
2022-08-26T16:01:27.112Z,29.16
2022-08-26T16:03:56.757Z,29.07
2022-08-26T16:06:27.586Z,29.00
2022-08-26T16:08:56.177Z,28.99
2022-08-26T16:11:23.737Z,29.11
2022-08-26T16:13:50.971Z,28.84
2022-08-26T16:16:18.708Z,28.70
2022-08-26T16:18:45.708Z,28.75
2022-08-26T16:21:21.805Z,28.90
2022-08-26T16:23:48.951Z,28.66
2022-08-26T16:26:19.841Z,28.58
2022-08-26T16:28:47.653Z,28.46
2022-08-26T16:31:15.485Z,28.27
2022-08-26T16:33:42.375Z,28.26
2022-08-26T16:36:10.279Z,28.21
2022-08-26T16:38:38.052Z,28.04
2022-08-26T16:41:05.555Z,28.17
2022-08-26T16:43:32.329Z,28.15
2022-08-26T16:45:59.504Z,28.09
2022-08-26T16:48:27.553Z,28.17
2022-08-26T16:50:55.628Z,28.18
2022-08-26T16:53:23.637Z,28.03
2022-08-26T16:55:51.051Z,28.12
2022-08-26T16:58:19.376Z,27.99
2022-08-26T17:00:47.919Z,27.86
2022-08-26T17:03:15.491Z,27.84
2022-08-26T17:05:42.523Z,27.88
2022-08-26T17:08:09.428Z,27.84
2022-08-26T17:10:36.364Z,27.86
2022-08-26T17:13:03.334Z,27.88
2022-08-26T17:15:30.844Z,27.76
2022-08-26T17:17:57.600Z,27.89
2022-08-26T17:20:25.509Z,27.72
2022-08-26T17:22:54.743Z,27.74
2022-08-26T17:25:29.640Z,27.68
2022-08-26T17:30:29.715Z,27.75
2022-08-26T17:32:58.108Z,27.69
2022-08-26T17:35:26.412Z,27.71
2022-08-26T17:37:53.491Z,27.60
2022-08-26T17:40:22.591Z,27.57
2022-08-26T17:42:52.883Z,27.53
2022-08-26T17:47:46.865Z,27.38
2022-08-26T17:50:16.381Z,27.30
2022-08-26T17:52:44.127Z,27.31
2022-08-26T17:55:13.328Z,27.25
2022-08-26T17:57:40.627Z,27.17
2022-08-26T18:00:12.561Z,27.21
2022-08-26T18:02:40.454Z,27.15
2022-08-26T18:05:08.458Z,27.21
2022-08-26T18:07:43.984Z,27.03
2022-08-26T18:10:13.515Z,26.88
2022-08-26T18:12:41.735Z,26.80
2022-08-26T18:15:10.872Z,26.74
2022-08-26T18:17:39.413Z,26.76
2022-08-26T18:20:11.826Z,26.68
2022-08-26T18:22:38.625Z,26.69
2022-08-26T18:25:06.895Z,26.67
2022-08-26T18:27:36.167Z,26.61
2022-08-26T18:30:06.367Z,26.43
2022-08-26T18:32:33.276Z,26.62
2022-08-26T18:35:00.178Z,26.72
2022-08-26T18:37:30.908Z,26.79
2022-08-26T18:39:59.654Z,26.65
2022-08-26T18:42:26.837Z,26.53
2022-08-26T18:44:54.305Z,26.37
2022-08-26T18:47:21.349Z,26.24
2022-08-26T18:49:48.711Z,26.18
2022-08-26T18:52:15.607Z,26.17
2022-08-26T18:54:42.731Z,26.13
2022-08-26T18:57:09.781Z,25.97
2022-08-26T18:59:36.564Z,26.06
2022-08-26T19:02:03.600Z,26.05
2022-08-26T19:04:30.397Z,26.05
2022-08-26T19:06:57.219Z,25.98
2022-08-26T19:09:26.351Z,26.05
2022-08-26T19:11:53.845Z,26.10
2022-08-26T19:14:20.593Z,26.10
2022-08-26T19:16:49.717Z,26.03
2022-08-26T19:19:17.077Z,26.10
2022-08-26T19:21:44.220Z,25.89
2022-08-26T19:24:17.333Z,25.64
2022-08-26T19:26:46.928Z,25.91
2022-08-26T19:29:14.072Z,25.73
2022-08-26T19:31:44.056Z,25.74
2022-08-26T19:34:12.030Z,25.88
2022-08-26T19:36:39.787Z,25.93
2022-08-26T19:39:12.209Z,25.84
2022-08-26T19:41:40.676Z,25.37
2022-08-26T19:44:34.665Z,25.14
2022-08-26T19:47:03.595Z,25.12
2022-08-26T19:49:30.755Z,25.16
2022-08-26T19:51:57.648Z,25.02
2022-08-26T19:54:25.129Z,25.01
2022-08-26T19:56:51.965Z,25.15
2022-08-26T19:59:18.791Z,25.01
2022-08-26T20:01:45.613Z,25.13
2022-08-26T20:04:13.088Z,25.08
2022-08-26T20:06:39.939Z,25.15
2022-08-26T20:09:06.712Z,25.15
2022-08-26T20:11:33.463Z,25.09
2022-08-26T20:14:00.539Z,25.04
2022-08-26T20:16:27.469Z,25.18
2022-08-26T20:19:12.925Z,25.23
2022-08-26T20:21:41.394Z,25.32
2022-08-26T20:24:13.304Z,25.26
2022-08-26T20:26:43.363Z,25.35
2022-08-26T20:29:13.838Z,25.37
2022-08-26T20:31:40.846Z,25.20
2022-08-26T20:34:08.091Z,25.25
2022-08-26T20:36:36.442Z,25.28
2022-08-26T20:39:04.217Z,25.27
2022-08-26T20:41:31.680Z,25.13
2022-08-26T20:43:58.714Z,25.17
2022-08-26T20:46:25.986Z,24.98
2022-08-26T20:48:54.239Z,25.02
2022-08-26T20:51:23.957Z,24.94
2022-08-26T20:53:51.498Z,24.85
2022-08-26T20:56:23.759Z,24.85
2022-08-26T20:58:53.472Z,24.86
2022-08-26T21:01:24.403Z,24.89
2022-08-26T21:03:52.893Z,24.95
2022-08-26T21:06:19.795Z,24.73
2022-08-26T21:08:48.744Z,24.51
2022-08-26T21:11:17.367Z,24.51
2022-08-26T21:14:04.036Z,24.40
2022-08-26T21:16:31.693Z,24.34
2022-08-26T21:19:00.314Z,23.95
2022-08-26T21:21:27.654Z,24.42
2022-08-26T21:23:55.334Z,24.35
2022-08-26T21:26:22.893Z,24.36
2022-08-26T21:28:50.172Z,24.43
2022-08-26T21:31:20.578Z,24.60
2022-08-26T21:33:48.233Z,24.55
2022-08-26T21:36:15.599Z,24.51
2022-08-26T21:38:42.388Z,24.47
2022-08-26T21:41:19.427Z,24.61
2022-08-26T21:43:48.298Z,24.62
2022-08-26T21:46:19.484Z,24.95
2022-08-26T21:48:51.015Z,24.94
2022-08-26T21:51:20.954Z,24.83
2022-08-26T21:53:47.802Z,24.62
2022-08-26T21:56:17.091Z,24.72
2022-08-26T21:58:43.953Z,24.68
2022-08-26T22:01:13.606Z,24.70
2022-08-26T22:03:47.380Z,24.76
2022-08-26T22:06:19.360Z,24.64
2022-08-26T22:08:46.258Z,24.65
2022-08-26T22:11:14.335Z,24.75
2022-08-26T22:13:42.359Z,24.69
2022-08-26T22:16:10.027Z,24.53
2022-08-26T22:18:37.952Z,24.43
2022-08-26T22:21:09.203Z,24.61
2022-08-26T22:23:37.253Z,24.43
2022-08-26T22:26:08.787Z,24.38
2022-08-26T22:28:36.568Z,24.45
2022-08-26T22:31:03.749Z,24.17
2022-08-26T22:33:30.488Z,24.23
2022-08-26T22:35:57.223Z,24.29
2022-08-26T22:38:24.084Z,24.18
2022-08-26T22:40:56.974Z,23.99
2022-08-26T22:43:25.192Z,24.06
2022-08-26T22:45:53.195Z,23.96
2022-08-26T22:48:23.298Z,24.23
2022-08-26T22:50:51.552Z,24.26
2022-08-26T22:53:18.532Z,24.02
2022-08-26T22:55:45.720Z,23.72
2022-08-26T22:58:15.026Z,23.47
2022-08-26T23:00:43.974Z,23.38
2022-08-26T23:03:11.435Z,23.17
2022-08-26T23:05:39.627Z,23.06
2022-08-26T23:08:07.496Z,22.93
2022-08-26T23:10:34.392Z,22.92
2022-08-26T23:13:01.939Z,22.84
2022-08-26T23:15:28.658Z,23.09
2022-08-26T23:17:58.788Z,23.20
2022-08-26T23:20:27.372Z,23.15
2022-08-26T23:22:54.767Z,22.96
2022-08-26T23:25:22.278Z,22.74
2022-08-26T23:27:52.232Z,21.30
2022-08-26T23:30:24.605Z,22.55
2022-08-26T23:32:51.545Z,22.66
2022-08-26T23:35:21.678Z,22.51
2022-08-26T23:37:51.609Z,22.33
2022-08-26T23:40:25.503Z,22.20
2022-08-26T23:42:53.833Z,21.75
2022-08-26T23:45:21.150Z,22.16
2022-08-26T23:47:50.606Z,22.22
2022-08-26T23:50:19.085Z,22.27
2022-08-26T23:53:04.323Z,22.34
2022-08-26T23:55:34.609Z,22.07
2022-08-26T23:58:01.547Z,21.70
